Time;durP1;ratioP1;P1;durP2;ratioP2;P2;SDS_P1;SDS_P2;PMS_P1;PMS_P2;Temp;Humidity;BMP_temperature;BMP_pressure;BME280_temperature;BME280_humidity;BME280_pressure;Samples;Min_cycle;Max_cycle;Signal;HPM_P1;HPM_P2
2021/07/03 00:00:13;;;;;;;25.13;16.08;;;;;;;13.92;82.17;99518.63;5015689;28;20030;-62
2021/07/03 00:02:39;;;;;;;26.13;15.93;;;;;;;13.88;82.46;99509.47;5033676;28;20053;-62
2021/07/03 00:05:05;;;;;;;28.15;17.65;;;;;;;13.77;82.81;99511.25;5033453;28;20025;-62
2021/07/03 00:07:30;;;;;;;28.05;16.52;;;;;;;13.58;84.04;99504.63;5033874;28;20032;-62
2021/07/03 00:09:56;;;;;;;27.73;18.30;;;;;;;13.68;84.26;99507.41;5031858;28;20026;-62
2021/07/03 00:12:21;;;;;;;31.13;16.95;;;;;;;13.73;83.79;99506.66;5013919;28;20511;-62
2021/07/03 00:14:47;;;;;;;26.77;17.25;;;;;;;13.73;83.16;99512.84;5014088;28;20033;-62
2021/07/03 00:17:12;;;;;;;23.73;16.52;;;;;;;13.69;83.51;99503.63;5031419;28;20029;-62
2021/07/03 00:19:38;;;;;;;29.60;15.68;;;;;;;13.65;83.22;99507.09;5033615;28;20105;-62
2021/07/03 00:22:03;;;;;;;22.98;16.08;;;;;;;13.64;83.74;99508.16;5033266;28;20120;-62
2021/07/03 00:24:29;;;;;;;27.60;15.52;;;;;;;13.57;83.53;99509.16;5033844;28;20025;-62
2021/07/03 00:26:54;;;;;;;30.98;16.33;;;;;;;13.55;84.13;99507.81;5033097;28;20034;-62
2021/07/03 00:29:19;;;;;;;28.63;18.35;;;;;;;13.46;84.49;99510.16;5033473;28;20362;-62
2021/07/03 00:31:45;;;;;;;31.35;17.90;;;;;;;13.51;84.22;99510.22;5033206;28;20044;-62
2021/07/03 00:34:10;;;;;;;29.30;17.55;;;;;;;13.57;84.02;99513.75;5033416;28;20384;-62
2021/07/03 00:36:36;;;;;;;26.05;14.18;;;;;;;13.49;83.48;99515.03;5032982;28;20045;-62
2021/07/03 00:39:01;;;;;;;24.40;15.30;;;;;;;13.41;83.64;99512.00;5033424;28;20032;-62
2021/07/03 00:41:27;;;;;;;24.27;15.05;;;;;;;13.39;83.52;99509.53;5032860;28;20044;-62
2021/07/03 00:43:52;;;;;;;27.58;15.57;;;;;;;13.29;82.99;99507.56;5032991;28;20022;-62
2021/07/03 00:46:18;;;;;;;25.80;13.95;;;;;;;13.17;83.42;99502.28;5032859;28;20502;-62
2021/07/03 00:48:43;;;;;;;26.13;15.48;;;;;;;13.10;83.64;99504.38;5033219;28;20091;-62
2021/07/03 00:51:08;;;;;;;23.48;15.20;;;;;;;12.94;85.03;99500.69;5028026;28;20048;-62
2021/07/03 00:53:34;;;;;;;28.98;16.80;;;;;;;12.95;86.09;99507.72;5028589;28;20037;-62
2021/07/03 00:56:00;;;;;;;34.33;17.35;;;;;;;12.91;86.71;99503.88;5003421;28;20053;-62
2021/07/03 00:58:25;;;;;;;27.17;17.65;;;;;;;12.92;86.42;99508.19;5033030;28;20413;-62
2021/07/03 01:00:51;;;;;;;28.17;17.23;;;;;;;12.82;86.47;99507.25;5032616;28;20049;-62
2021/07/03 01:03:16;;;;;;;27.13;17.33;;;;;;;12.75;86.43;99512.81;5032884;28;20077;-62
2021/07/03 01:05:42;;;;;;;24.50;15.77;;;;;;;12.69;85.71;99517.31;5032443;28;20037;-62
2021/07/03 01:08:07;;;;;;;21.85;14.52;;;;;;;12.65;85.48;99508.13;5015249;28;20032;-62
2021/07/03 01:10:33;;;;;;;28.27;16.77;;;;;;;12.65;86.58;99513.50;5031193;28;20045;-62
2021/07/03 01:12:58;;;;;;;27.38;17.38;;;;;;;12.61;86.50;99517.75;5031755;28;20053;-62
2021/07/03 01:15:24;;;;;;;30.58;19.77;;;;;;;12.66;87.18;99515.13;5032507;28;20034;-62
2021/07/03 01:17:49;;;;;;;34.10;18.80;;;;;;;12.72;86.09;99521.38;5032694;28;20034;-62
2021/07/03 01:20:15;;;;;;;30.75;17.60;;;;;;;12.71;86.21;99523.28;5032260;28;20166;-62
2021/07/03 01:22:41;;;;;;;29.13;18.23;;;;;;;12.60;86.16;99516.13;5032678;28;20025;-62
2021/07/03 01:25:07;;;;;;;33.33;19.45;;;;;;;12.65;87.39;99518.06;5031987;28;20068;-62
2021/07/03 01:27:32;;;;;;;29.67;18.98;;;;;;;12.61;87.16;99516.94;5031251;28;20056;-62
2021/07/03 01:29:58;;;;;;;32.03;18.80;;;;;;;12.62;87.36;99519.38;5031115;28;20484;-61
2021/07/03 01:32:24;;;;;;;26.65;17.40;;;;;;;12.67;86.51;99511.38;5032101;28;20121;-62
2021/07/03 01:34:49;;;;;;;22.80;15.93;;;;;;;12.72;86.54;99506.06;5032559;28;20029;-62
2021/07/03 01:37:15;;;;;;;29.77;17.67;;;;;;;12.70;85.40;99515.44;5032133;28;20045;-62
2021/07/03 01:39:40;;;;;;;24.23;16.02;;;;;;;12.64;85.57;99501.13;5032539;28;20495;-62
2021/07/03 01:42:07;;;;;;;32.60;17.83;;;;;;;12.55;85.86;99513.34;5032095;28;20043;-61
2021/07/03 01:44:33;;;;;;;35.28;19.85;;;;;;;12.53;87.19;99515.50;5032517;28;20112;-61
2021/07/03 01:46:59;;;;;;;29.05;17.25;;;;;;;12.55;87.20;99512.56;5030820;28;20053;-62
2021/07/03 01:49:25;;;;;;;32.28;17.30;;;;;;;12.50;86.11;99505.22;5031180;28;20449;-61
2021/07/03 01:51:50;;;;;;;24.08;14.75;;;;;;;12.38;87.34;99505.34;5032081;28;20045;-62
2021/07/03 01:54:16;;;;;;;27.05;16.92;;;;;;;12.37;87.59;99505.59;5031170;28;20057;-61
2021/07/03 01:56:42;;;;;;;25.65;16.70;;;;;;;12.32;86.34;99508.22;5032075;28;20468;-61
2021/07/03 01:59:07;;;;;;;26.75;17.10;;;;;;;12.28;86.72;99503.34;5032387;28;20036;-62
2021/07/03 02:01:32;;;;;;;33.83;16.50;;;;;;;12.22;86.45;99511.56;5030521;28;20050;-62
2021/07/03 02:03:59;;;;;;;27.23;17.02;;;;;;;12.20;86.79;99510.97;5032251;28;20034;-62
2021/07/03 02:06:24;;;;;;;27.27;16.25;;;;;;;12.12;86.83;99504.16;5030387;28;20048;-61
2021/07/03 02:08:50;;;;;;;27.75;16.50;;;;;;;12.02;86.99;99509.38;5032392;28;20100;-61
2021/07/03 02:11:15;;;;;;;28.05;17.20;;;;;;;12.03;88.00;99509.13;5031893;28;20491;-62
2021/07/03 02:13:41;;;;;;;33.25;17.75;;;;;;;12.05;88.83;99501.63;5031006;28;20028;-62
2021/07/03 02:16:06;;;;;;;31.05;17.90;;;;;;;12.03;88.06;99511.81;5031803;28;20034;-62
2021/07/03 02:18:32;;;;;;;26.15;16.20;;;;;;;11.99;87.96;99509.88;5032127;28;20091;-60
2021/07/03 02:20:57;;;;;;;27.92;15.77;;;;;;;11.95;87.32;99506.03;5031979;28;20087;-60
2021/07/03 02:23:22;;;;;;;29.00;16.10;;;;;;;11.97;87.63;99507.41;5032375;28;20021;-62
2021/07/03 02:25:48;;;;;;;25.77;16.25;;;;;;;11.96;87.00;99510.38;5031728;28;20034;-60
2021/07/03 02:28:14;;;;;;;29.88;15.20;;;;;;;11.91;86.39;99516.47;5030863;28;20101;-60
2021/07/03 02:30:39;;;;;;;28.30;15.73;;;;;;;11.83;87.67;99512.28;5031629;28;20041;-60
2021/07/03 02:33:05;;;;;;;32.15;18.08;;;;;;;11.72;88.68;99520.41;5031988;28;20419;-60
2021/07/03 02:35:30;;;;;;;31.33;18.58;;;;;;;11.71;89.67;99519.59;5035195;28;20048;-60
2021/07/03 02:37:56;;;;;;;36.10;19.05;;;;;;;11.89;89.17;99520.44;5035623;28;20018;-61
2021/07/03 02:40:21;;;;;;;37.42;20.45;;;;;;;11.75;90.17;99518.03;5034773;28;20041;-61
2021/07/03 02:42:46;;;;;;;37.22;20.15;;;;;;;11.73;89.50;99517.47;5035491;28;20025;-60
2021/07/03 02:45:13;;;;;;;31.55;19.35;;;;;;;11.76;89.51;99521.56;5035196;28;20392;-62
2021/07/03 02:47:39;;;;;;;30.67;19.00;;;;;;;11.77;89.57;99518.59;5035359;28;20112;-61
2021/07/03 02:50:06;;;;;;;35.17;18.35;;;;;;;11.74;89.42;99513.72;5034950;28;20121;-61
2021/07/03 02:52:31;;;;;;;25.38;15.68;;;;;;;11.81;88.85;99514.38;5035360;28;20384;-61
2021/07/03 02:54:57;;;;;;;23.67;15.32;;;;;;;11.81;89.18;99514.38;5035360;28;20017;-62
2021/07/03 02:57:22;;;;;;;27.10;17.23;;;;;;;11.81;87.65;99509.03;5034803;28;20042;-61
2021/07/03 02:59:48;;;;;;;34.55;18.85;;;;;;;11.74;89.22;99500.31;5035243;28;20471;-61
2021/07/03 03:02:13;;;;;;;36.35;20.50;;;;;;;11.74;89.63;99497.63;5034664;28;20502;-61
2021/07/03 03:04:39;;;;;;;31.20;19.25;;;;;;;11.76;88.83;99492.81;5035103;28;20017;-62
2021/07/03 03:07:05;;;;;;;31.42;18.35;;;;;;;11.63;88.23;99493.13;5034682;28;20037;-61
2021/07/03 03:09:30;;;;;;;28.10;17.55;;;;;;;11.58;88.13;99496.56;5034836;28;20464;-61
2021/07/03 03:11:56;;;;;;;29.05;17.45;;;;;;;11.64;88.09;99497.44;5034579;28;20091;-61
2021/07/03 03:14:22;;;;;;;26.92;16.30;;;;;;;11.63;88.11;99498.50;5034935;28;20075;-61
2021/07/03 03:16:47;;;;;;;31.45;16.60;;;;;;;11.63;87.33;99491.28;5033180;28;20038;-61
2021/07/03 03:19:13;;;;;;;26.27;15.80;;;;;;;11.57;86.76;99486.84;5034817;28;20079;-61
2021/07/03 03:21:38;;;;;;;25.67;15.75;;;;;;;11.46;87.72;99490.44;5034278;28;20153;-61
2021/07/03 03:24:04;;;;;;;27.23;15.50;;;;;;;11.49;87.49;99489.94;5033490;28;20036;-61
2021/07/03 03:26:29;;;;;;;26.80;16.25;;;;;;;11.38;87.36;99488.13;5034356;28;20092;-61
2021/07/03 03:28:55;;;;;;;29.13;15.15;;;;;;;11.41;87.89;99488.47;5034556;28;20474;-61
2021/07/03 03:31:20;;;;;;;24.00;16.40;;;;;;;11.48;87.71;99498.22;5034107;28;20046;-61
2021/07/03 03:33:46;;;;;;;25.73;15.38;;;;;;;11.57;87.58;99494.09;5034381;28;20026;-61
2021/07/03 03:36:11;;;;;;;26.27;14.82;;;;;;;11.72;86.56;99493.56;5034000;28;20034;-61
2021/07/03 03:38:37;;;;;;;24.58;14.40;;;;;;;11.97;85.55;99491.28;5034616;28;20025;-61
2021/07/03 03:41:02;;;;;;;29.27;16.80;;;;;;;12.22;84.08;99488.19;5033714;28;20104;-61
2021/07/03 03:43:27;;;;;;;26.92;15.43;;;;;;;12.34;83.64;99480.03;5034408;28;20385;-61
2021/07/03 03:45:53;;;;;;;28.58;17.35;;;;;;;12.73;83.41;99471.94;5033594;28;20483;-62
2021/07/03 03:48:18;;;;;;;30.50;17.20;;;;;;;13.14;81.57;99481.25;5034350;28;20033;-61
2021/07/03 03:50:44;;;;;;;28.17;17.38;;;;;;;13.56;78.83;99480.63;5032244;28;20041;-61
2021/07/03 03:53:09;;;;;;;25.67;17.13;;;;;;;14.00;77.23;99483.16;5034130;28;20029;-62
2021/07/03 03:55:34;;;;;;;22.63;14.60;;;;;;;14.35;74.10;99473.66;5032428;28;20034;-62
2021/07/03 03:58:00;;;;;;;23.45;13.82;;;;;;;14.74;72.58;99480.63;5034152;28;20030;-61
2021/07/03 04:00:26;;;;;;;22.33;12.68;;;;;;;15.29;70.81;99485.38;5033510;28;20491;-62
2021/07/03 04:02:51;;;;;;;19.48;12.60;;;;;;;16.24;66.40;99488.66;5032565;28;20045;-62
2021/07/03 04:05:16;;;;;;;25.92;11.52;;;;;;;16.38;65.55;99478.91;5033503;28;20033;-61
2021/07/03 04:07:42;;;;;;;18.75;11.35;;;;;;;16.27;65.06;99485.41;5034016;28;20025;-62
2021/07/03 04:10:09;;;;;;;26.10;12.15;;;;;;;16.65;63.63;99483.13;5033507;28;20507;-62
2021/07/03 04:12:34;;;;;;;18.42;10.98;;;;;;;16.43;64.09;99487.00;5033744;28;20026;-62
2021/07/03 04:15:00;;;;;;;18.98;11.10;;;;;;;17.04;63.06;99484.06;5033649;28;20034;-62
2021/07/03 04:17:26;;;;;;;17.60;10.95;;;;;;;17.65;60.25;99485.59;5033609;28;20037;-62
2021/07/03 04:19:52;;;;;;;21.27;11.80;;;;;;;17.74;59.71;99477.66;5033881;28;20032;-62
2021/07/03 04:22:17;;;;;;;20.02;11.25;;;;;;;17.30;61.47;99467.69;5033278;28;20029;-62
2021/07/03 04:24:42;;;;;;;18.70;11.68;;;;;;;16.08;66.09;99477.88;5033554;28;20084;-62
2021/07/03 04:27:08;;;;;;;21.50;12.65;;;;;;;16.98;63.23;99477.06;5033095;28;20503;-61
2021/07/03 04:29:33;;;;;;;19.13;12.00;;;;;;;16.95;62.40;99474.13;5033304;28;20479;-62
2021/07/03 04:31:59;;;;;;;22.10;11.88;;;;;;;16.28;65.00;99473.53;5033172;28;20034;-62
2021/07/03 04:34:24;;;;;;;21.90;12.60;;;;;;;16.09;66.36;99471.38;5033323;28;20029;-61
2021/07/03 04:36:50;;;;;;;21.67;13.18;;;;;;;15.64;67.63;99467.59;5032937;28;20048;-61
2021/07/03 04:39:15;;;;;;;21.42;13.05;;;;;;;15.12;70.31;99463.19;5033396;28;20030;-62
2021/07/03 04:41:41;;;;;;;19.35;12.45;;;;;;;15.05;70.16;99462.63;5031545;28;20401;-62
2021/07/03 04:44:06;;;;;;;22.55;13.48;;;;;;;15.02;70.05;99463.97;5031661;28;20360;-61
2021/07/03 04:46:32;;;;;;;24.45;13.60;;;;;;;15.94;67.04;99463.28;5032789;28;20099;-62
2021/07/03 04:48:58;;;;;;;19.90;11.57;;;;;;;16.77;64.49;99465.50;5033344;28;20026;-61
2021/07/03 04:51:24;;;;;;;23.38;12.27;;;;;;;18.59;57.98;99465.44;5032824;28;20053;-62
2021/07/03 04:53:49;;;;;;;26.20;12.15;;;;;;;19.43;55.68;99470.34;5031939;28;20025;-62
2021/07/03 04:56:17;;;;;;;15.07;11.23;;;;;;;19.99;53.81;99472.19;5032039;28;20034;-62
2021/07/03 04:58:42;;;;;;;18.08;11.40;;;;;;;21.75;48.29;99481.91;5032939;28;20380;-62
2021/07/03 05:01:07;;;;;;;22.02;11.43;;;;;;;22.57;46.02;99477.88;5032483;28;20038;-62
2021/07/03 05:03:33;;;;;;;29.00;10.75;;;;;;;22.48;46.59;99476.22;5033183;28;20025;-62
2021/07/03 05:05:58;;;;;;;21.85;12.68;;;;;;;21.18;49.64;99479.66;5032749;28;20041;-62
2021/07/03 05:08:24;;;;;;;23.70;11.88;;;;;;;21.89;48.16;99477.19;5031950;28;20022;-62
2021/07/03 05:10:49;;;;;;;24.13;12.27;;;;;;;22.05;47.26;99483.06;5032535;28;20038;-62
2021/07/03 05:13:14;;;;;;;21.85;11.43;;;;;;;22.43;46.48;99485.34;5031719;28;20442;-62
2021/07/03 05:15:40;;;;;;;24.02;11.68;;;;;;;22.70;46.27;99487.06;5032444;28;20403;-62
2021/07/03 05:18:05;;;;;;;20.35;11.68;;;;;;;22.82;46.05;99483.72;5033116;28;20029;-62
2021/07/03 05:20:31;;;;;;;19.77;12.55;;;;;;;22.69;46.29;99490.09;5031201;28;20392;-61
2021/07/03 05:22:56;;;;;;;18.90;11.77;;;;;;;24.10;43.82;99491.50;5031723;28;20030;-61
2021/07/03 05:25:22;;;;;;;26.88;13.30;;;;;;;24.57;42.28;99488.00;5032310;28;20033;-61
2021/07/03 05:27:47;;;;;;;27.80;13.55;;;;;;;24.61;41.80;99488.13;5031747;28;20018;-61
2021/07/03 05:30:13;;;;;;;21.83;12.75;;;;;;;24.80;41.65;99498.69;5032322;28;20380;-60
2021/07/03 05:32:39;;;;;;;29.38;13.07;;;;;;;24.46;43.07;99500.44;5031530;28;20464;-60
2021/07/03 05:35:05;;;;;;;21.67;12.52;;;;;;;24.73;42.35;99499.97;5032261;28;20029;-60
2021/07/03 05:37:30;;;;;;;20.40;13.57;;;;;;;24.68;43.42;99502.91;5032774;28;20029;-60
2021/07/03 05:39:56;;;;;;;26.85;12.80;;;;;;;24.86;42.62;99502.81;5032762;28;20025;-60
2021/07/03 05:42:21;;;;;;;26.70;12.13;;;;;;;24.68;43.67;99491.94;5032274;28;20395;-60
2021/07/03 05:44:46;;;;;;;20.60;12.27;;;;;;;25.09;42.68;99493.19;5032690;28;20511;-60
2021/07/03 05:47:12;;;;;;;16.65;12.45;;;;;;;25.79;41.59;99492.66;5032342;28;20044;-60
2021/07/03 05:49:37;;;;;;;20.60;12.10;;;;;;;25.98;41.38;99484.72;5014895;28;20033;-60
2021/07/03 05:52:03;;;;;;;18.38;12.13;;;;;;;25.32;43.09;99488.19;5031018;28;20091;-60
2021/07/03 05:54:31;;;;;;;20.67;12.07;;;;;;;25.70;41.96;99489.19;5032473;28;20030;-61
2021/07/03 05:56:56;;;;;;;19.80;12.90;;;;;;;24.88;44.22;99486.84;5032135;28;20038;-61
2021/07/03 05:59:22;;;;;;;18.42;12.85;;;;;;;25.58;42.65;99485.22;5032436;28;20479;-60
2021/07/03 06:01:47;;;;;;;25.38;12.95;;;;;;;27.01;39.65;99478.28;5031909;28;20061;-61
2021/07/03 06:04:12;;;;;;;21.27;13.25;;;;;;;26.72;39.18;99479.34;5032633;28;20017;-60
2021/07/03 06:06:38;;;;;;;23.60;13.02;;;;;;;27.23;38.98;99485.28;5032094;28;20034;-61
2021/07/03 06:09:03;;;;;;;19.50;12.60;;;;;;;27.36;38.68;99483.28;5035571;28;20430;-61
2021/07/03 06:11:29;;;;;;;25.60;14.13;;;;;;;27.27;38.29;99483.41;5034395;28;20048;-61
2021/07/03 06:13:55;;;;;;;22.25;13.98;;;;;;;27.35;38.67;99472.63;5035939;28;20295;-61
2021/07/03 06:16:21;;;;;;;21.17;14.45;;;;;;;27.36;38.40;99465.94;5034285;28;20088;-61
2021/07/03 06:18:46;;;;;;;22.48;14.02;;;;;;;27.85;37.11;99468.53;5036185;28;20029;-61
2021/07/03 06:21:12;;;;;;;22.40;14.57;;;;;;;27.24;38.48;99473.09;5034237;28;20040;-61
2021/07/03 06:23:37;;;;;;;23.52;14.57;;;;;;;27.85;37.45;99476.78;5035986;28;20025;-61
2021/07/03 06:26:03;;;;;;;25.35;14.02;;;;;;;27.03;38.94;99469.66;5035417;28;20475;-61
2021/07/03 06:28:31;;;;;;;24.48;15.95;;;;;;;27.65;37.84;99470.31;5035699;28;20036;-61
2021/07/03 06:30:56;;;;;;;24.52;15.15;;;;;;;28.40;36.69;99475.06;5035381;28;20475;-61
2021/07/03 06:33:22;;;;;;;21.73;15.30;;;;;;;26.65;40.17;99457.91;5035655;28;20033;-61
2021/07/03 06:35:47;;;;;;;20.80;14.68;;;;;;;27.60;38.24;99465.06;5035326;28;20037;-61
2021/07/03 06:38:12;;;;;;;28.73;15.88;;;;;;;28.09;36.84;99476.66;5035551;28;20091;-61
2021/07/03 06:40:38;;;;;;;20.63;15.13;;;;;;;27.95;37.75;99473.53;5035206;28;20038;-61
2021/07/03 06:43:03;;;;;;;22.80;15.82;;;;;;;28.33;36.83;99470.19;5035513;28;20040;-61
2021/07/03 06:45:29;;;;;;;24.65;15.27;;;;;;;29.33;35.26;99470.91;5035162;28;20045;-61
2021/07/03 06:47:54;;;;;;;22.13;15.35;;;;;;;28.77;35.99;99477.56;5035395;28;20033;-61
2021/07/03 06:50:20;;;;;;;22.20;15.15;;;;;;;29.75;34.46;99476.53;5035156;28;20041;-61
2021/07/03 06:52:45;;;;;;;25.80;17.23;;;;;;;27.77;37.54;99474.97;5035319;28;20582;-61
2021/07/03 06:55:11;;;;;;;22.98;16.67;;;;;;;27.90;37.70;99476.53;5034984;28;20103;-62
2021/07/03 06:57:36;;;;;;;22.02;16.85;;;;;;;29.27;34.64;99475.94;5035265;28;20084;-61
2021/07/03 07:00:04;;;;;;;23.33;16.58;;;;;;;29.14;35.43;99474.47;5034869;28;20026;-61
2021/07/03 07:02:29;;;;;;;24.13;17.15;;;;;;;28.06;37.21;99465.56;5035035;28;20484;-62
2021/07/03 07:04:55;;;;;;;25.65;16.98;;;;;;;27.78;37.80;99471.06;5035197;28;20033;-61
2021/07/03 07:07:20;;;;;;;22.88;16.00;;;;;;;29.11;36.21;99472.44;5034718;28;20091;-61
2021/07/03 07:09:45;;;;;;;26.58;16.52;;;;;;;29.56;35.48;99459.97;5035272;28;20030;-62
2021/07/03 07:12:11;;;;;;;25.60;18.13;;;;;;;28.85;36.26;99464.72;5034630;28;20038;-61
2021/07/03 07:14:37;;;;;;;22.60;16.15;;;;;;;28.79;36.83;99465.00;5034990;28;20052;-62
2021/07/03 07:17:03;;;;;;;25.20;16.42;;;;;;;27.70;38.72;99470.06;5034476;28;20043;-61
2021/07/03 07:19:29;;;;;;;25.38;16.90;;;;;;;27.84;38.71;99464.19;5034252;28;20464;-61
2021/07/03 07:21:54;;;;;;;25.48;17.60;;;;;;;26.99;40.44;99457.78;5034513;28;20038;-61
2021/07/03 07:24:19;;;;;;;30.55;17.63;;;;;;;27.30;40.30;99463.44;5033552;28;20021;-61
2021/07/03 07:26:46;;;;;;;25.23;16.98;;;;;;;28.23;38.22;99464.41;5034430;28;20400;-61
2021/07/03 07:29:11;;;;;;;27.25;16.63;;;;;;;27.95;38.83;99457.00;5034691;28;20476;-61
2021/07/03 07:31:37;;;;;;;25.23;16.75;;;;;;;28.20;38.52;99452.13;5034374;28;20034;-61
2021/07/03 07:34:02;;;;;;;24.20;15.85;;;;;;;30.56;34.36;99447.97;5034771;28;20026;-61
2021/07/03 07:36:27;;;;;;;27.85;15.45;;;;;;;30.92;33.51;99442.97;5034165;28;20372;-62
2021/07/03 07:38:53;;;;;;;26.60;14.80;;;;;;;29.51;35.93;99450.00;5034640;28;20029;-62
2021/07/03 07:41:18;;;;;;;23.30;14.93;;;;;;;30.16;35.05;99443.72;5034166;28;20116;-61
2021/07/03 07:43:44;;;;;;;26.00;15.18;;;;;;;30.87;33.76;99437.75;5034653;28;20394;-62
2021/07/03 07:46:09;;;;;;;22.55;14.55;;;;;;;31.58;32.93;99440.66;5033956;28;20033;-61
2021/07/03 07:48:35;;;;;;;22.85;14.55;;;;;;;31.05;33.80;99430.50;5016669;28;20045;-62
2021/07/03 07:51:01;;;;;;;23.00;15.20;;;;;;;31.09;33.44;99420.28;5032729;28;20124;-62
2021/07/03 07:53:30;;;;;;;26.23;13.70;;;;;;;31.27;33.50;99425.22;5034276;28;20061;-62
2021/07/03 07:55:56;;;;;;;23.15;14.52;;;;;;;31.16;33.39;99420.38;5033819;28;20052;-61
2021/07/03 07:58:22;;;;;;;26.20;14.68;;;;;;;31.68;32.80;99426.13;5033188;28;20380;-62
2021/07/03 08:00:47;;;;;;;21.00;13.27;;;;;;;31.74;32.22;99424.59;5032600;28;20052;-61
2021/07/03 08:03:12;;;;;;;25.63;13.80;;;;;;;31.89;32.33;99425.53;5033862;28;20042;-61
2021/07/03 08:05:38;;;;;;;22.95;13.45;;;;;;;31.65;32.84;99423.31;5033560;28;20045;-62
2021/07/03 08:08:06;;;;;;;25.25;13.60;;;;;;;32.01;32.35;99416.97;5033920;28;20033;-61
2021/07/03 08:10:38;;;;;;;23.30;14.15;;;;;;;31.31;34.50;99420.53;5033449;28;20400;-62
2021/07/03 08:13:03;;;;;;;23.80;12.75;;;;;;;32.49;32.29;99423.72;5034104;28;20029;-61
2021/07/03 08:15:31;;;;;;;24.00;13.05;;;;;;;30.92;34.74;99415.28;5033272;28;20034;-62
2021/07/03 08:17:56;;;;;;;28.23;13.85;;;;;;;32.45;32.30;99413.38;5033767;28;20080;-62
2021/07/03 08:20:22;;;;;;;22.90;14.02;;;;;;;32.10;33.69;99415.84;5033277;28;20087;-62
2021/07/03 08:22:49;;;;;;;25.38;12.32;;;;;;;31.49;33.52;99410.47;5033702;28;20045;-62
2021/07/03 08:25:14;;;;;;;27.92;14.00;;;;;;;32.33;32.84;99404.56;5031705;28;20032;-62
2021/07/03 08:27:40;;;;;;;25.70;13.35;;;;;;;32.94;31.22;99411.28;5033848;28;20108;-62
2021/07/03 08:30:06;;;;;;;21.80;12.00;;;;;;;31.75;33.93;99406.00;5023951;28;20034;-62
2021/07/03 08:32:31;;;;;;;24.83;13.05;;;;;;;31.71;33.56;99396.88;5031516;28;20029;-62
2021/07/03 08:34:57;;;;;;;21.63;13.60;;;;;;;31.53;34.48;99397.47;5033361;28;20494;-62
2021/07/03 08:37:22;;;;;;;24.42;13.65;;;;;;;30.72;36.01;99393.25;5032907;28;20087;-62
2021/07/03 08:39:48;;;;;;;26.98;13.55;;;;;;;30.45;36.46;99392.50;5033132;28;20037;-61
2021/07/03 08:42:13;;;;;;;18.33;13.40;;;;;;;31.03;35.20;99388.56;5032461;28;20033;-62
2021/07/03 08:44:46;;;;;;;23.60;11.55;;;;;;;30.54;35.16;99394.97;5033123;28;20040;-61
2021/07/03 08:47:13;;;;;;;26.55;11.95;;;;;;;31.42;33.73;99393.78;5032887;28;20072;-61
2021/07/03 08:49:39;;;;;;;19.55;12.20;;;;;;;30.03;34.60;99395.31;5033108;28;20125;-61
2021/07/03 08:52:05;;;;;;;21.45;12.20;;;;;;;30.60;34.53;99387.94;5032552;28;20057;-61
2021/07/03 08:54:30;;;;;;;18.95;12.55;;;;;;;28.97;36.90;99393.69;5033197;28;20029;-61
2021/07/03 08:57:00;;;;;;;23.98;13.30;;;;;;;29.49;36.86;99388.84;5032457;28;20125;-61
2021/07/03 08:59:26;;;;;;;20.05;11.68;;;;;;;28.66;39.40;99380.00;5032776;28;20476;-61
2021/07/03 09:01:57;;;;;;;16.50;10.02;;;;;;;28.56;36.30;99373.09;5032394;28;20079;-62
2021/07/03 09:04:36;;;;;;;13.80;10.25;;;;;;;26.86;38.99;99372.56;5032850;28;20112;-61
2021/07/03 09:07:15;;;;;;;17.40;10.68;;;;;;;28.73;35.39;99377.38;5032285;28;20033;-62
2021/07/03 09:09:41;;;;;;;15.82;9.75;;;;;;;27.76;36.39;99375.06;5032821;28;20025;-62
2021/07/03 09:12:07;;;;;;;13.23;9.57;;;;;;;25.83;39.60;99376.34;5032368;28;20104;-62
2021/07/03 09:14:32;;;;;;;14.45;9.27;;;;;;;27.11;38.48;99367.78;5031542;28;20033;-61
2021/07/03 09:16:58;;;;;;;13.45;9.07;;;;;;;26.83;38.07;99373.25;5032379;28;20034;-61
2021/07/03 09:19:28;;;;;;;12.88;8.52;;;;;;;27.11;36.63;99376.03;5032624;28;20017;-61
2021/07/03 09:21:53;;;;;;;;;;;;;;;28.04;35.51;99366.72;5032790;28;20038;-62
2021/07/03 09:24:19;;;;;;;14.18;8.60;;;;;;;26.40;36.62;99371.91;5031450;28;19920;-62
2021/07/03 09:26:44;;;;;;;16.67;8.88;;;;;;;27.16;35.57;99374.16;5032311;28;20475;-61
2021/07/03 09:29:10;;;;;;;16.92;9.63;;;;;;;25.48;39.65;99375.88;5032681;28;20033;-61
2021/07/03 09:31:35;;;;;;;14.93;8.15;;;;;;;27.61;34.22;99376.63;5032150;28;20041;-61
2021/07/03 09:34:01;;;;;;;12.40;8.30;;;;;;;28.94;32.56;99369.56;5032551;28;20033;-61
2021/07/03 09:36:30;;;;;;;12.43;7.82;;;;;;;29.90;31.78;99372.63;5032275;28;20504;-61
2021/07/03 09:38:57;;;;;;;13.70;8.40;;;;;;;30.82;29.80;99372.47;5032583;28;20029;-62
2021/07/03 09:41:30;;;;;;;9.10;6.10;;;;;;;26.53;33.58;99366.44;5032266;28;20041;-62
2021/07/03 09:44:00;;;;;;;10.27;7.00;;;;;;;29.19;28.83;99367.34;5035447;28;20076;-62
2021/07/03 09:46:29;;;;;;;12.10;7.18;;;;;;;29.82;30.14;99366.16;5036154;28;20037;-62
2021/07/03 09:48:59;;;;;;;13.93;7.10;;;;;;;30.56;28.60;99353.94;5036724;28;20128;-61
2021/07/03 09:51:36;;;;;;;10.98;6.95;;;;;;;30.86;29.14;99353.16;5035928;28;20517;-62
2021/07/03 09:54:03;;;;;;;13.30;6.55;;;;;;;28.07;31.58;99351.44;5035325;28;20032;-61
2021/07/03 09:56:28;;;;;;;10.27;6.22;;;;;;;26.84;33.66;99341.84;5034877;28;20064;-61
2021/07/03 09:58:53;;;;;;;9.57;6.15;;;;;;;27.82;32.53;99345.31;5036298;28;20025;-61
2021/07/03 10:01:19;;;;;;;9.93;6.78;;;;;;;26.98;32.87;99335.16;5034563;28;20041;-61
2021/07/03 10:03:44;;;;;;;13.75;6.60;;;;;;;27.09;33.41;99328.81;5036501;28;20065;-61
2021/07/03 10:06:13;;;;;;;11.10;5.60;;;;;;;29.00;30.03;99332.25;5034474;28;20037;-61
2021/07/03 10:08:40;;;;;;;11.50;5.63;;;;;;;29.72;29.28;99330.09;5035071;28;20104;-61
2021/07/03 10:11:06;;;;;;;9.13;5.72;;;;;;;27.05;30.70;99327.09;5034365;28;20045;-61
2021/07/03 10:13:32;;;;;;;10.43;6.15;;;;;;;27.46;31.81;99328.66;5034740;28;20100;-61
2021/07/03 10:16:04;;;;;;;9.88;6.05;;;;;;;26.84;32.79;99330.84;5034675;28;20068;-61
2021/07/03 10:18:31;;;;;;;10.95;5.88;;;;;;;26.89;32.73;99325.13;5036114;28;20025;-61
2021/07/03 10:21:11;;;;;;;8.20;5.82;;;;;;;26.29;34.42;99326.81;5035537;28;20041;-61
2021/07/03 10:23:38;;;;;;;11.95;6.07;;;;;;;28.89;31.13;99328.50;5035850;28;20025;-61
2021/07/03 10:26:04;;;;;;;9.93;6.20;;;;;;;26.70;33.71;99324.13;5035350;28;20044;-62
2021/07/03 10:28:32;;;;;;;8.45;5.78;;;;;;;28.64;31.76;99329.94;5035892;28;20025;-63
2021/07/03 10:31:11;;;;;;;10.07;5.93;;;;;;;28.92;29.74;99329.72;5035278;28;20080;-61
2021/07/03 10:33:48;;;;;;;10.95;6.60;;;;;;;25.51;37.62;99320.34;5035303;28;20376;-62
2021/07/03 10:36:25;;;;;;;11.52;7.05;;;;;;;26.13;38.18;99315.72;5035187;28;20099;-63
2021/07/03 10:38:51;;;;;;;11.18;7.07;;;;;;;28.52;33.48;99317.88;5035652;28;20029;-62
2021/07/03 10:41:27;;;;;;;12.32;6.75;;;;;;;29.31;32.42;99313.19;5035467;28;20107;-63
2021/07/03 10:44:04;;;;;;;9.90;6.55;;;;;;;29.12;31.63;99314.78;5035679;28;20026;-62
2021/07/03 10:46:37;;;;;;;9.73;6.75;;;;;;;29.78;30.70;99310.09;5035220;28;20488;-63
2021/07/03 10:49:13;;;;;;;9.07;6.70;;;;;;;29.07;30.75;99308.78;5035379;28;20025;-62
2021/07/03 10:51:39;;;;;;;10.07;6.57;;;;;;;28.28;33.30;99312.56;5034978;28;20064;-63
2021/07/03 10:54:27;;;;;;;13.05;7.35;;;;;;;26.39;35.50;99298.88;5034419;28;20472;-62
2021/07/03 10:57:06;;;;;;;11.18;6.95;;;;;;;26.00;36.83;99295.72;5034935;28;20552;-61
2021/07/03 10:59:37;;;;;;;10.50;6.88;;;;;;;27.53;34.88;99295.00;5035731;28;20021;-61
2021/07/03 11:02:10;;;;;;;10.15;7.28;;;;;;;27.95;34.07;99295.28;5034682;28;20519;-61
2021/07/03 11:04:51;;;;;;;9.70;6.57;;;;;;;29.64;31.66;99296.00;5035198;28;20087;-61
2021/07/03 11:07:18;;;;;;;11.82;6.63;;;;;;;29.30;32.13;99284.75;5034617;28;20048;-61
2021/07/03 11:09:43;;;;;;;11.30;6.82;;;;;;;26.94;34.67;99285.56;5034297;28;20111;-62
2021/07/03 11:12:20;;;;;;;10.00;6.55;;;;;;;27.61;33.57;99282.22;5034639;28;20026;-61
2021/07/03 11:14:55;;;;;;;12.65;6.78;;;;;;;27.94;33.08;99281.88;5034852;28;20431;-61